Time;durP1;ratioP1;P1;durP2;ratioP2;P2;SDS_P1;SDS_P2;PMS_P1;PMS_P2;Temp;Humidity;BMP_temperature;BMP_pressure;BME280_temperature;BME280_humidity;BME280_pressure;Samples;Min_cycle;Max_cycle;Signal;HPM_P1;HPM_P2
2023/07/18 00:00:32;;;;;;;;;9.00;9.00;;;;;24.70;49.90;100936.33;110095;1253;22005;-73
2023/07/18 00:03:19;;;;;;;;;10.00;9.33;;;;;24.62;51.15;100951.58;110094;1266;22276;-73
2023/07/18 00:05:45;;;;;;;;;6.00;6.00;;;;;24.60;52.20;100948.46;110106;1266;22528;-73
2023/07/18 00:08:11;;;;;;;;;10.00;9.00;;;;;24.53;52.89;100950.70;110058;1251;20986;-74
2023/07/18 00:10:37;;;;;;;;;11.00;10.00;;;;;24.42;53.96;100951.61;110035;1266;18325;-73
2023/07/18 00:13:04;;;;;;;;;13.00;11.00;;;;;24.42;54.35;100945.20;110068;1251;22789;-73
2023/07/18 00:15:30;;;;;;;;;10.00;9.00;;;;;24.45;54.25;100949.27;110132;1251;21216;-73
2023/07/18 00:17:56;;;;;;;;;9.00;9.00;;;;;24.48;54.41;100960.52;110124;1251;20090;-74
2023/07/18 00:20:23;;;;;;;;;13.00;10.00;;;;;24.47;54.46;100969.74;110112;1251;20061;-74
2023/07/18 00:22:49;;;;;;;;;9.50;9.50;;;;;24.46;54.76;100971.79;110083;1266;19509;-73
2023/07/18 00:25:16;;;;;;;;;9.00;9.00;;;;;24.40;55.00;100967.61;110060;1266;22324;-74
2023/07/18 00:27:42;;;;;;;;;9.00;8.50;;;;;24.39;55.44;100954.41;110108;1266;19961;-74
2023/07/18 00:30:08;;;;;;;;;9.50;9.50;;;;;24.41;55.49;100948.52;110101;1251;20870;-74
2023/07/18 00:32:34;;;;;;;;;13.67;12.00;;;;;24.36;55.51;100948.63;110100;1266;18325;-74
2023/07/18 00:35:00;;;;;;;;;14.00;12.00;;;;;24.28;55.68;100947.81;110007;1266;19007;-73
2023/07/18 00:37:26;;;;;;;;;10.00;9.00;;;;;24.23;55.63;100952.23;110076;1251;22017;-74
2023/07/18 00:39:53;;;;;;;;;11.00;11.00;;;;;24.19;55.53;100938.86;110065;1251;23084;-73
2023/07/18 00:42:19;;;;;;;;;6.67;6.67;;;;;24.18;55.38;100930.73;110062;1266;18677;-73
2023/07/18 00:44:45;;;;;;;;;8.00;8.00;;;;;24.21;55.01;100937.24;110094;1251;20951;-73
2023/07/18 00:47:11;;;;;;;;;12.00;11.00;;;;;24.24;54.92;100936.69;110112;1266;18419;-73
2023/07/18 00:49:37;;;;;;;;;8.00;8.00;;;;;24.22;55.10;100934.42;110018;1266;22639;-73
2023/07/18 00:52:04;;;;;;;;;12.00;9.67;;;;;24.18;55.35;100933.09;109963;1266;22608;-73
2023/07/18 00:54:30;;;;;;;;;13.00;12.00;;;;;24.15;55.33;100956.79;110010;1266;19905;-73
2023/07/18 00:56:56;;;;;;;;;13.00;12.00;;;;;24.09;55.43;100969.10;110122;1266;20209;-73
2023/07/18 00:59:22;;;;;;;;;10.00;9.00;;;;;24.07;55.59;100977.80;110143;1251;20911;-74
2023/07/18 01:01:48;;;;;;;;;9.00;9.00;;;;;24.09;55.74;100972.92;110081;1266;18627;-72
2023/07/18 01:04:14;;;;;;;;;8.50;8.50;;;;;24.07;55.82;100950.08;110105;1266;22876;-72
2023/07/18 01:06:40;;;;;;;;;10.00;9.00;;;;;24.09;55.88;100947.79;110111;1251;20821;-72
2023/07/18 01:09:08;;;;;;;;;11.00;10.00;;;;;24.03;56.29;100942.02;110024;1259;19639;-72
2023/07/18 01:11:34;;;;;;;;;14.00;13.00;;;;;24.01;56.20;100947.31;109965;1258;19027;-72
2023/07/18 01:14:00;;;;;;;;;19.00;13.50;;;;;24.01;56.12;100951.02;110067;1251;19397;-72
2023/07/18 01:16:26;;;;;;;;;16.50;16.00;;;;;23.99;55.98;100963.29;110087;1251;20133;-73
2023/07/18 01:18:52;;;;;;;;;14.00;13.00;;;;;24.00;55.88;100967.73;110082;1262;20194;-75
2023/07/18 01:21:18;;;;;;;;;16.00;16.00;;;;;23.96;56.02;100978.17;110101;1266;20799;-74
2023/07/18 01:23:45;;;;;;;;;12.67;11.33;;;;;23.91;56.09;100986.24;110099;1251;19984;-73
2023/07/18 01:26:11;;;;;;;;;12.00;10.00;;;;;23.87;56.36;100989.44;110110;1251;20190;-74
2023/07/18 01:28:37;;;;;;;;;12.00;10.00;;;;;23.96;56.26;100999.19;110111;1251;20823;-74
2023/07/18 01:31:03;;;;;;;;;11.00;9.50;;;;;23.99;56.14;101002.38;110119;1251;20016;-74
2023/07/18 01:33:29;;;;;;;;;12.00;10.00;;;;;24.01;56.24;101012.35;110084;1251;19938;-74
2023/07/18 01:35:55;;;;;;;;;15.00;14.00;;;;;23.81;56.60;101032.45;110090;1259;20712;-74
2023/07/18 01:38:21;;;;;;;;;17.00;13.00;;;;;23.32;57.93;101047.64;110099;1251;20174;-74
2023/07/18 01:40:47;;;;;;;;;15.00;13.00;;;;;23.11;58.85;101052.50;110112;1251;20079;-73
2023/07/18 01:43:13;;;;;;;;;17.00;15.00;;;;;22.95;59.61;101041.59;110087;1251;21054;-73
2023/07/18 01:45:39;;;;;;;;;13.00;11.00;;;;;22.79;59.77;101018.71;110108;1266;18629;-74
2023/07/18 01:48:06;;;;;;;;;15.33;12.33;;;;;22.60;60.02;100992.46;110093;1251;20086;-74
2023/07/18 01:50:32;;;;;;;;;13.00;13.00;;;;;22.63;60.46;100992.34;110114;1251;20787;-74
2023/07/18 01:52:58;;;;;;;;;13.00;13.00;;;;;22.67;60.55;101009.19;110085;1251;20884;-73
2023/07/18 01:55:25;;;;;;;;;11.00;11.00;;;;;22.63;60.86;101016.77;109996;1266;18759;-73
2023/07/18 01:57:51;;;;;;;;;13.00;12.00;;;;;22.70;61.05;101018.61;110095;1266;21990;-74
2023/07/18 02:00:20;;;;;;;;;12.00;11.33;;;;;22.60;61.74;101013.10;110098;1259;20242;-74
2023/07/18 02:02:48;;;;;;;;;13.00;12.00;;;;;22.58;61.88;101014.54;110087;1251;20234;-73
2023/07/18 02:05:14;;;;;;;;;13.00;12.33;;;;;22.68;61.89;101017.09;110103;1266;19324;-74
2023/07/18 02:07:40;;;;;;;;;12.00;11.50;;;;;22.70;62.03;101022.72;110100;1266;18638;-75
2023/07/18 02:10:06;;;;;;;;;17.00;15.00;;;;;22.68;62.23;101024.58;110115;1251;20071;-74
2023/07/18 02:12:32;;;;;;;;;16.00;15.00;;;;;22.61;62.21;101018.63;110054;1266;20770;-73
2023/07/18 02:14:58;;;;;;;;;12.50;12.00;;;;;22.55;62.29;101013.52;110023;1266;18618;-73
2023/07/18 02:17:24;;;;;;;;;15.00;13.00;;;;;22.59;62.41;101017.91;110047;1251;20063;-73
2023/07/18 02:19:50;;;;;;;;;16.00;15.00;;;;;22.66;62.15;101028.04;110095;1251;22086;-73
2023/07/18 02:22:18;;;;;;;;;16.00;13.00;;;;;22.66;62.01;101028.96;110105;1251;22102;-73
2023/07/18 02:24:45;;;;;;;;;13.00;13.00;;;;;22.56;62.05;101030.84;110118;1259;18886;-74
2023/07/18 02:27:11;;;;;;;;;15.00;14.00;;;;;22.55;61.96;101038.84;110096;1266;19373;-74
2023/07/18 02:29:37;;;;;;;;;15.50;15.50;;;;;22.49;62.25;101045.95;110121;1251;20320;-75
2023/07/18 02:32:03;;;;;;;;;13.00;12.00;;;;;22.45;62.19;101048.77;110097;1266;21800;-73
2023/07/18 02:34:29;;;;;;;;;12.00;12.00;;;;;22.51;62.03;101051.55;110105;1250;20750;-73
2023/07/18 02:36:55;;;;;;;;;14.33;13.00;;;;;22.44;61.83;101059.06;110094;1251;22661;-72
2023/07/18 02:39:21;;;;;;;;;14.00;12.00;;;;;22.44;61.90;101057.83;110103;1251;20236;-72
2023/07/18 02:41:47;;;;;;;;;15.00;15.00;;;;;22.38;61.92;101059.03;110128;1251;19406;-74
2023/07/18 02:44:13;;;;;;;;;15.00;14.50;;;;;22.33;61.96;101061.11;110070;1251;19797;-73
2023/07/18 02:46:39;;;;;;;;;14.00;14.00;;;;;22.28;62.33;101063.91;110145;1251;20146;-74
2023/07/18 02:49:05;;;;;;;;;16.00;15.00;;;;;22.26;62.35;101070.12;110127;1253;20722;-73
2023/07/18 02:51:31;;;;;;;;;15.00;14.67;;;;;22.26;62.45;101068.42;110065;1251;20043;-74
2023/07/18 02:53:57;;;;;;;;;15.50;15.50;;;;;22.40;62.07;101069.02;110016;1266;18722;-74
2023/07/18 02:56:23;;;;;;;;;19.00;19.00;;;;;22.30;62.19;101075.80;110040;1266;19456;-74
2023/07/18 02:58:49;;;;;;;;;18.00;16.00;;;;;22.19;62.41;101077.67;110081;1266;20064;-74
2023/07/18 03:01:18;;;;;;;;;14.00;12.00;;;;;22.06;62.96;101077.46;110095;1251;22415;-74
2023/07/18 03:03:44;;;;;;;;;18.00;15.00;;;;;22.14;62.27;101080.11;110098;1251;20531;-73
2023/07/18 03:06:10;;;;;;;;;15.00;15.00;;;;;22.05;62.10;101082.10;110127;1266;18562;-73
2023/07/18 03:08:36;;;;;;;;;14.50;14.00;;;;;21.99;61.90;101077.04;110128;1266;20033;-74
2023/07/18 03:11:03;;;;;;;;;15.00;14.33;;;;;22.04;61.92;101076.25;110099;1265;20817;-74
2023/07/18 03:13:29;;;;;;;;;15.00;14.00;;;;;22.15;61.39;101083.80;110101;1251;21170;-74
2023/07/18 03:15:55;;;;;;;;;14.00;12.00;;;;;22.08;61.62;101080.88;110088;1266;21225;-73
2023/07/18 03:18:21;;;;;;;;;14.00;14.00;;;;;21.91;62.06;101079.77;110130;1251;19363;-74
2023/07/18 03:20:47;;;;;;;;;16.00;14.50;;;;;21.92;62.24;101079.29;110126;1251;19973;-74
2023/07/18 03:23:13;;;;;;;;;21.00;18.00;;;;;21.91;61.97;101076.66;110123;1251;21685;-77
2023/07/18 03:25:39;;;;;;;;;18.00;17.50;;;;;21.93;62.14;101074.23;110105;1266;19497;-74
2023/07/18 03:28:05;;;;;;;;;18.00;16.00;;;;;21.93;62.09;101074.95;109966;1251;20134;-73
2023/07/18 03:30:31;;;;;;;;;14.50;14.50;;;;;21.91;62.03;101076.73;109997;1266;19041;-73
2023/07/18 03:32:57;;;;;;;;;12.00;12.00;;;;;21.86;61.92;101076.48;110055;1251;20808;-74
2023/07/18 03:35:23;;;;;;;;;17.00;14.00;;;;;21.78;61.81;101079.30;110111;1251;18678;-74
2023/07/18 03:37:49;;;;;;;;;12.00;12.00;;;;;21.78;61.86;101086.39;110034;1259;19029;-74
2023/07/18 03:40:16;;;;;;;;;12.00;12.00;;;;;21.75;61.63;101091.84;110126;1266;20702;-74
2023/07/18 03:42:42;;;;;;;;;12.00;12.00;;;;;21.71;60.96;101097.50;110081;1266;18694;-74
2023/07/18 03:45:09;;;;;;;;;10.00;10.00;;;;;21.61;60.56;101102.13;110096;1251;19997;-74
2023/07/18 03:47:36;;;;;;;;;8.00;8.00;;;;;21.45;60.09;101106.48;110068;1266;19745;-74
2023/07/18 03:50:02;;;;;;;;;8.00;8.00;;;;;21.44;59.68;101106.05;109985;1251;20085;-74
2023/07/18 03:52:28;;;;;;;;;21.00;18.00;;;;;21.54;59.07;101112.79;110086;1258;21501;-74
2023/07/18 03:54:54;;;;;;;;;14.67;12.00;;;;;21.65;58.81;101115.55;110098;1251;22658;-74
2023/07/18 03:57:20;;;;;;;;;12.00;12.00;;;;;21.67;58.60;101119.13;110068;1266;18704;-74
2023/07/18 03:59:46;;;;;;;;;8.00;8.00;;;;;21.62;58.45;101122.62;110093;1266;22471;-74
2023/07/18 04:02:14;;;;;;;;;11.00;11.00;;;;;21.62;58.59;101122.63;110094;1251;22319;-75
2023/07/18 04:04:41;;;;;;;;;10.50;10.00;;;;;21.68;58.52;101121.39;110070;1251;22821;-73
2023/07/18 04:07:07;;;;;;;;;10.00;7.50;;;;;21.60;58.49;101121.74;110107;1250;20234;-74
2023/07/18 04:09:34;;;;;;;;;10.00;8.00;;;;;21.60;58.62;101122.80;110101;1266;22778;-74
2023/07/18 04:12:00;;;;;;;;;17.50;15.50;;;;;21.61;58.83;101127.63;110099;1251;22220;-74
2023/07/18 04:14:26;;;;;;;;;12.00;12.00;;;;;21.58;58.71;101124.44;110100;1266;22250;-74
2023/07/18 04:16:52;;;;;;;;;14.00;12.00;;;;;21.49;59.14;101126.19;110040;1251;22029;-73
2023/07/18 04:19:19;;;;;;;;;17.00;15.00;;;;;21.45;59.25;101131.78;110050;1251;20054;-73
2023/07/18 04:21:45;;;;;;;;;20.00;16.50;;;;;21.46;59.26;101137.80;110021;1251;20120;-72
2023/07/18 04:24:11;;;;;;;;;31.00;26.50;;;;;21.54;59.20;101134.58;110083;1266;19517;-73
2023/07/18 04:26:37;;;;;;;;;17.00;16.00;;;;;21.55;59.00;101138.45;110091;1266;20020;-73
2023/07/18 04:29:03;;;;;;;;;12.00;11.50;;;;;21.51;59.25;101138.33;110047;1251;21051;-73
2023/07/18 04:31:29;;;;;;;;;8.00;8.00;;;;;21.36;59.49;101144.54;110067;1251;20911;-73
2023/07/18 04:33:55;;;;;;;;;20.00;18.00;;;;;21.50;59.45;101147.23;109959;1250;20235;-73
2023/07/18 04:36:21;;;;;;;;;15.00;15.00;;;;;21.56;58.97;101143.95;109943;1259;18815;-73
2023/07/18 04:38:47;;;;;;;;;15.00;14.00;;;;;21.54;58.96;101144.52;109996;1265;19394;-73
2023/07/18 04:41:13;;;;;;;;;12.00;12.00;;;;;21.58;58.61;101144.52;110037;1251;21466;-73
2023/07/18 04:43:39;;;;;;;;;17.50;14.00;;;;;21.56;58.81;101146.36;110042;1251;20100;-73
2023/07/18 04:46:05;;;;;;;;;18.50;17.00;;;;;21.58;58.61;101143.49;110026;1266;19943;-73
2023/07/18 04:48:31;;;;;;;;;17.50;15.00;;;;;21.58;58.50;101145.95;110058;1266;22504;-73
2023/07/18 04:50:57;;;;;;;;;11.67;11.00;;;;;21.56;58.41;101141.22;110090;1251;20501;-75
2023/07/18 04:53:23;;;;;;;;;14.00;14.00;;;;;21.44;58.73;101149.64;110091;1266;22209;-74
2023/07/18 04:55:49;;;;;;;;;12.00;11.00;;;;;21.38;58.58;101148.70;110044;1266;19929;-74
2023/07/18 04:58:15;;;;;;;;;9.33;8.67;;;;;21.54;58.18;101149.64;110024;1266;21839;-73
2023/07/18 05:00:42;;;;;;;;;8.00;8.00;;;;;21.53;58.02;101148.84;110086;1266;21802;-74
2023/07/18 05:03:08;;;;;;;;;11.50;10.50;;;;;21.58;58.01;101147.69;110078;1266;19028;-73
2023/07/18 05:05:34;;;;;;;;;8.00;7.00;;;;;21.59;57.90;101149.08;110103;1251;20102;-74
2023/07/18 05:08:00;;;;;;;;;7.00;7.00;;;;;21.50;58.09;101150.34;110086;1251;20765;-72
2023/07/18 05:10:26;;;;;;;;;18.00;15.00;;;;;21.37;58.23;101148.70;110093;1266;18371;-72
2023/07/18 05:12:52;;;;;;;;;20.00;20.00;;;;;21.54;57.76;101144.33;110102;1266;22269;-73
2023/07/18 05:15:18;;;;;;;;;14.00;14.00;;;;;21.65;57.62;101150.58;110089;1258;21991;-73
2023/07/18 05:17:44;;;;;;;;;12.00;11.00;;;;;21.65;57.27;101147.17;110123;1266;18587;-73
2023/07/18 05:20:11;;;;;;;;;;;;;;;21.67;57.34;101150.06;110119;1266;18720;-73
2023/07/18 05:22:37;;;;;;;;;13.00;11.00;;;;;21.52;57.49;101149.13;110115;1266;19380;-74
2023/07/18 05:25:04;;;;;;;;;8.00;8.00;;;;;21.62;57.17;101148.63;110067;1266;18505;-74
2023/07/18 05:27:30;;;;;;;;;6.00;5.00;;;;;21.69;56.71;101156.20;110073;1266;20221;-74
2023/07/18 05:29:57;;;;;;;;;15.50;14.50;;;;;21.66;56.89;101154.83;110023;1266;19465;-74
2023/07/18 05:32:23;;;;;;;;;10.00;8.00;;;;;21.65;56.68;101151.29;109978;1266;18497;-73
2023/07/18 05:34:49;;;;;;;;;10.00;8.00;;;;;21.70;56.56;101154.73;109998;1266;18861;-73
2023/07/18 05:37:16;;;;;;;;;8.00;8.00;;;;;21.75;56.45;101150.73;110022;1266;20398;-74
2023/07/18 05:39:42;;;;;;;;;10.00;8.00;;;;;21.78;56.41;101153.25;110076;1266;19929;-73
2023/07/18 05:42:08;;;;;;;;;9.00;8.00;;;;;21.73;56.31;101158.20;110127;1266;22239;-73
2023/07/18 05:44:34;;;;;;;;;10.00;8.00;;;;;21.59;56.32;101160.89;110082;1251;19639;-74
2023/07/18 05:47:00;;;;;;;;;9.00;8.00;;;;;21.53;56.04;101164.59;110127;1266;19738;-74
2023/07/18 05:49:26;;;;;;;;;8.00;8.00;;;;;21.64;55.85;101160.36;110106;1266;18871;-73
2023/07/18 05:51:53;;;;;;;;;7.00;7.00;;;;;21.79;55.34;101161.16;110112;1259;19679;-73
2023/07/18 05:54:19;;;;;;;;;8.00;7.00;;;;;21.54;55.71;101161.30;110088;1266;19584;-73
2023/07/18 05:56:45;;;;;;;;;5.00;5.00;;;;;21.66;55.33;101163.39;110094;1266;18846;-73
2023/07/18 05:59:11;;;;;;;;;5.00;4.00;;;;;21.69;55.12;101164.02;110085;1266;19473;-73
2023/07/18 06:01:37;;;;;;;;;7.00;7.00;;;;;21.67;55.22;101164.28;110107;1266;18706;-72
2023/07/18 06:04:03;;;;;;;;;7.00;5.00;;;;;21.60;55.37;101161.70;110065;1266;18974;-72
2023/07/18 06:06:29;;;;;;;;;5.00;5.00;;;;;21.74;55.32;101164.88;110077;1266;22774;-76
2023/07/18 06:08:56;;;;;;;;;5.00;5.00;;;;;21.75;55.00;101161.64;110075;1266;18953;-72
2023/07/18 06:11:22;;;;;;;;;9.50;7.50;;;;;21.81;54.59;101167.33;110084;1251;20214;-72
2023/07/18 06:13:48;;;;;;;;;5.67;5.00;;;;;21.88;54.45;101165.95;110078;1266;19361;-73
2023/07/18 06:16:14;;;;;;;;;5.00;5.00;;;;;21.95;54.07;101164.64;110087;1266;22788;-73
2023/07/18 06:18:41;;;;;;;;;5.00;5.00;;;;;21.83;54.39;101168.35;110012;1251;22735;-73
2023/07/18 06:21:07;;;;;;;;;5.00;5.00;;;;;21.87;54.09;101176.11;109997;1250;20859;-72
2023/07/18 06:23:33;;;;;;;;;5.00;5.00;;;;;21.99;53.71;101177.95;109995;1251;22684;-72
2023/07/18 06:25:59;;;;;;;;;5.00;5.00;;;;;21.90;53.71;101183.10;109888;1258;119212;-72
2023/07/18 06:28:25;;;;;;;;;5.00;5.00;;;;;21.95;53.79;101188.28;109961;1266;21837;-73
2023/07/18 06:30:51;;;;;;;;;5.00;5.00;;;;;22.16;53.24;101192.45;110001;1266;18459;-73
2023/07/18 06:33:19;;;;;;;;;7.00;5.00;;;;;22.27;53.32;101198.63;110042;1266;19911;-73
2023/07/18 06:35:45;;;;;;;;;5.00;5.00;;;;;22.36;53.09;101201.29;110048;1266;20949;-73
2023/07/18 06:38:13;;;;;;;;;7.00;7.00;;;;;22.44;53.03;101207.24;110047;1251;19937;-72
2023/07/18 06:40:39;;;;;;;;;6.00;6.00;;;;;22.49;52.76;101207.33;109967;1266;18672;-71
2023/07/18 06:43:06;;;;;;;;;6.00;6.00;;;;;22.56;52.83;101210.10;110090;1250;20860;-71
2023/07/18 06:45:32;;;;;;;;;6.00;6.00;;;;;22.59;52.67;101212.33;110068;1266;18442;-71
2023/07/18 06:47:58;;;;;;;;;5.00;5.00;;;;;22.77;52.24;101216.62;110141;1266;21730;-72
2023/07/18 06:50:24;;;;;;;;;5.00;5.00;;;;;22.72;52.13;101215.48;110199;1266;22268;-72
2023/07/18 06:52:51;;;;;;;;;7.00;7.00;;;;;22.56;52.08;101216.27;110169;1258;19588;-71
2023/07/18 06:55:17;;;;;;;;;7.00;5.00;;;;;22.59;51.97;101214.86;110166;1259;18883;-72
2023/07/18 06:57:43;;;;;;;;;5.00;5.00;;;;;22.67;52.14;101218.23;110069;1254;20730;-71
2023/07/18 07:00:11;;;;;;;;;5.00;5.00;;;;;22.78;52.01;101215.77;110027;1251;20844;-73
2023/07/18 07:02:37;;;;;;;;;7.00;7.00;;;;;22.84;52.08;101216.84;110055;1266;18636;-73
2023/07/18 07:05:04;;;;;;;;;7.00;6.00;;;;;22.90;51.81;101214.58;110078;1259;19547;-73
2023/07/18 07:07:30;;;;;;;;;7.50;7.00;;;;;22.94;51.56;101214.23;110139;1266;19554;-73
2023/07/18 07:09:57;;;;;;;;;7.00;7.00;;;;;22.89;51.44;101215.05;110150;1266;19918;-73
2023/07/18 07:12:23;;;;;;;;;8.00;7.00;;;;;22.89;51.45;101214.41;110166;1251;20771;-73
2023/07/18 07:14:49;;;;;;;;;5.00;4.50;;;;;23.02;51.36;101214.81;110132;1249;19777;-73
2023/07/18 07:17:15;;;;;;;;;8.00;7.00;;;;;23.08;51.17;101217.67;110098;1266;20293;-73
2023/07/18 07:19:41;;;;;;;;;6.00;5.00;;;;;23.08;50.86;101219.94;110083;1251;20744;-74
2023/07/18 07:22:11;;;;;;;;;7.67;6.33;;;;;23.04;50.93;101219.81;110074;1251;21817;-73
2023/07/18 07:24:37;;;;;;;;;7.50;7.00;;;;;23.07;50.90;101221.09;110101;1251;21302;-74
2023/07/18 07:27:05;;;;;;;;;5.00;5.00;;;;;23.19;50.51;101220.91;110047;1250;20647;-76
2023/07/18 07:29:32;;;;;;;;;6.00;6.00;;;;;23.27;50.36;101224.34;110083;1253;19644;-74
2023/07/18 07:31:58;;;;;;;;;8.00;8.00;;;;;23.33;50.12;101226.09;110083;1258;20198;-74
2023/07/18 07:34:24;;;;;;;;;7.00;7.00;;;;;23.39;49.68;101225.48;110115;1258;20605;-74
2023/07/18 07:36:50;;;;;;;;;5.00;5.00;;;;;23.34;49.45;101229.52;110093;1253;19717;-72
2023/07/18 07:39:17;;;;;;;;;5.00;5.00;;;;;23.41;49.42;101227.32;110110;1256;23173;-74
2023/07/18 07:41:44;;;;;;;;;7.50;5.00;;;;;23.38;49.74;101224.53;110120;1266;20748;-74
2023/07/18 07:44:10;;;;;;;;;5.00;5.00;;;;;23.50;49.50;101222.01;110108;1253;22222;-74
2023/07/18 07:46:36;;;;;;;;;5.00;5.00;;;;;23.65;49.30;101225.30;110099;1250;20320;-73
2023/07/18 07:49:02;;;;;;;;;6.00;5.00;;;;;23.60;48.73;101222.05;110068;1250;22693;-72
2023/07/18 07:51:28;;;;;;;;;6.00;5.00;;;;;23.48;48.30;101220.77;110077;1251;21080;-74
2023/07/18 07:53:56;;;;;;;;;6.00;6.00;;;;;23.59;48.26;101220.51;110116;1266;18837;-74
2023/07/18 07:56:22;;;;;;;;;4.67;4.67;;;;;23.63;47.55;101218.41;110122;1251;20793;-74
2023/07/18 07:58:48;;;;;;;;;5.00;5.00;;;;;23.65;47.17;101213.88;110093;1261;20743;-74
2023/07/18 08:01:14;;;;;;;;;8.00;5.67;;;;;23.71;46.78;101212.42;110085;1266;22691;-74
2023/07/18 08:03:40;;;;;;;;;6.00;5.00;;;;;23.60;46.32;101212.57;110079;1266;21386;-74
2023/07/18 08:06:06;;;;;;;;;5.00;5.00;;;;;23.54;46.16;101212.23;110069;1250;19639;-74
2023/07/18 08:08:32;;;;;;;;;6.00;5.00;;;;;23.64;46.14;101209.15;110037;1266;18682;-73
2023/07/18 08:10:58;;;;;;;;;5.00;5.00;;;;;23.78;45.93;101212.25;110111;1266;20889;-73
2023/07/18 08:13:25;;;;;;;;;5.00;5.00;;;;;23.78;45.45;101213.55;110021;1266;19823;-74
2023/07/18 08:15:51;;;;;;;;;7.00;6.00;;;;;23.78;45.18;101211.54;110067;1266;18791;-74
2023/07/18 08:18:17;;;;;;;;;5.00;4.00;;;;;23.93;45.14;101208.58;110093;1266;21901;-74
2023/07/18 08:20:43;;;;;;;;;4.00;4.00;;;;;23.83;45.14;101212.55;110091;1251;21417;-73
2023/07/18 08:23:09;;;;;;;;;5.00;5.00;;;;;23.92;44.78;101210.23;110088;1266;18570;-73
2023/07/18 08:25:36;;;;;;;;;6.67;6.00;;;;;24.12;44.70;101207.77;109967;1266;19345;-73
2023/07/18 08:28:02;;;;;;;;;4.00;4.00;;;;;24.19;44.60;101206.18;110051;1251;19755;-73
2023/07/18 08:30:28;;;;;;;;;5.50;5.50;;;;;24.31;44.19;101203.59;110082;1266;18888;-73
2023/07/18 08:32:54;;;;;;;;;6.00;6.00;;;;;24.14;43.85;101200.05;110123;1251;19331;-73
2023/07/18 08:35:20;;;;;;;;;6.00;5.00;;;;;24.06;43.35;101198.59;110097;1250;22208;-74
2023/07/18 08:37:46;;;;;;;;;5.00;5.00;;;;;24.14;42.43;101193.26;109998;1259;19823;-74
2023/07/18 08:40:13;;;;;;;;;4.00;4.00;;;;;24.20;42.22;101194.02;110039;1251;19351;-74
2023/07/18 08:42:39;;;;;;;;;6.00;5.00;;;;;24.18;42.13;101192.46;110116;1250;20913;-72
2023/07/18 08:45:05;;;;;;;;;4.00;4.00;;;;;24.25;42.18;101190.98;110086;1266;20176;-73
2023/07/18 08:47:31;;;;;;;;;5.00;5.00;;;;;24.28;42.11;101191.33;110092;1266;20885;-72
2023/07/18 08:49:58;;;;;;;;;4.00;4.00;;;;;24.22;42.18;101185.30;110088;1266;18498;-72
2023/07/18 08:52:24;;;;;;;;;4.00;4.00;;;;;24.26;42.18;101185.25;110069;1251;20178;-73
2023/07/18 08:54:50;;;;;;;;;5.00;5.00;;;;;24.36;42.10;101178.37;110112;1266;22435;-72
2023/07/18 08:57:16;;;;;;;;;5.00;5.00;;;;;24.44;41.97;101179.00;110134;1250;19783;-72
2023/07/18 08:59:43;;;;;;;;;5.00;5.00;;;;;24.47;41.85;101172.96;110075;1263;18701;-73
2023/07/18 09:02:09;;;;;;;;;4.00;4.00;;;;;24.49;41.81;101172.87;110081;1266;19325;-73
2023/07/18 09:04:35;;;;;;;;;6.00;5.00;;;;;24.70;41.90;101170.25;110130;1266;18514;-73
2023/07/18 09:07:01;;;;;;;;;5.00;5.00;;;;;24.74;41.62;101173.21;110099;1260;18889;-73
2023/07/18 09:09:27;;;;;;;;;5.00;4.00;;;;;24.80;41.07;101169.66;110086;1251;19440;-74
2023/07/18 09:11:53;;;;;;;;;6.00;5.00;;;;;24.87;40.53;101160.11;110059;1266;18407;-73
2023/07/18 09:14:19;;;;;;;;;5.00;5.00;;;;;24.78;40.06;101163.05;110083;1259;18653;-73
2023/07/18 09:16:45;;;;;;;;;4.00;4.00;;;;;24.73;39.72;101166.75;110056;1259;20556;-74
2023/07/18 09:19:12;;;;;;;;;4.00;4.00;;;;;24.75;39.98;101175.46;110116;1266;22332;-74
2023/07/18 09:21:38;;;;;;;;;4.67;4.00;;;;;24.71;40.31;101171.80;110103;1266;18730;-74
2023/07/18 09:24:04;;;;;;;;;7.00;5.00;;;;;24.72;40.15;101163.37;110102;1266;19801;-73
2023/07/18 09:26:30;;;;;;;;;5.00;5.00;;;;;24.67;40.00;101160.36;110132;1250;19549;-74
2023/07/18 09:28:56;;;;;;;;;4.00;4.00;;;;;24.69;40.29;101152.75;110112;1266;21580;-73
2023/07/18 09:31:22;;;;;;;;;5.00;4.00;;;;;24.64;39.94;101153.29;110086;1266;22101;-73
2023/07/18 09:33:48;;;;;;;;;6.00;6.00;;;;;24.64;39.42;101153.95;110097;1251;21899;-73
2023/07/18 09:36:15;;;;;;;;;5.00;5.00;;;;;24.66;39.32;101153.05;110054;1259;21132;-74
2023/07/18 09:38:41;;;;;;;;;4.50;4.50;;;;;24.74;39.05;101147.08;110083;1251;20957;-74
2023/07/18 09:41:07;;;;;;;;;4.00;4.00;;;;;24.75;38.98;101146.58;110088;1266;22489;-73
2023/07/18 09:43:33;;;;;;;;;6.00;5.00;;;;;24.74;38.95;101145.73;110073;1250;20211;-73
2023/07/18 09:45:59;;;;;;;;;5.00;5.00;;;;;24.63;39.33;101144.59;109993;1251;20680;-74
2023/07/18 09:48:25;;;;;;;;;6.00;6.00;;;;;24.62;39.24;101144.61;109960;1259;20707;-74
2023/07/18 09:50:51;;;;;;;;;5.00;5.00;;;;;24.55;39.01;101138.16;110047;1251;18368;-74
2023/07/18 09:53:18;;;;;;;;;5.00;5.00;;;;;24.50;38.73;101136.02;110058;1266;19494;-74
2023/07/18 09:55:44;;;;;;;;;5.00;5.00;;;;;24.61;38.54;101134.30;110093;1266;22773;-74
2023/07/18 09:58:10;;;;;;;;;5.00;4.00;;;;;24.66;38.95;101132.59;110111;1251;21089;-74
2023/07/18 10:00:37;;;;;;;;;4.00;4.00;;;;;24.61;38.88;101138.31;110085;1251;22005;-73
2023/07/18 10:03:04;;;;;;;;;2.00;2.00;;;;;24.47;38.43;101139.15;110077;1266;18383;-75
2023/07/18 10:05:30;;;;;;;;;5.33;4.00;;;;;24.40;37.87;101139.80;110104;1251;20063;-75
2023/07/18 10:07:56;;;;;;;;;4.00;4.00;;;;;24.41;37.77;101138.02;110108;1251;20712;-73
2023/07/18 10:10:22;;;;;;;;;5.00;4.50;;;;;24.46;37.63;101137.67;110094;1250;22803;-73
2023/07/18 10:12:48;;;;;;;;;4.00;4.00;;;;;24.47;37.68;101135.28;110064;1259;19856;-74
2023/07/18 10:15:14;;;;;;;;;4.00;4.00;;;;;24.45;37.81;101136.14;110083;1251;20797;-73
2023/07/18 10:17:40;;;;;;;;;2.00;2.00;;;;;24.46;37.96;101139.81;110090;1253;18509;-74
2023/07/18 10:20:06;;;;;;;;;2.00;2.00;;;;;24.40;37.97;101137.85;110100;1259;18611;-74
2023/07/18 10:22:33;;;;;;;;;4.00;4.00;;;;;24.37;37.65;101136.20;110100;1266;20574;-73
2023/07/18 10:24:59;;;;;;;;;5.00;5.00;;;;;24.41;37.56;101135.17;110015;1266;22985;-73
2023/07/18 10:27:25;;;;;;;;;4.00;2.00;;;;;24.41;37.76;101138.23;110022;1266;18656;-73
2023/07/18 10:29:51;;;;;;;;;5.00;4.00;;;;;24.44;37.71;101131.70;109982;1251;20619;-73
2023/07/18 10:32:17;;;;;;;;;4.00;4.00;;;;;24.49;37.60;101130.05;110049;1250;19695;-73
2023/07/18 10:34:43;;;;;;;;;4.00;3.00;;;;;24.55;37.55;101128.66;110104;1266;20298;-74
2023/07/18 10:37:09;;;;;;;;;2.00;2.00;;;;;24.60;37.40;101127.08;110099;1258;20952;-74
2023/07/18 10:39:37;;;;;;;;;5.00;5.00;;;;;24.56;37.41;101128.17;110112;1266;18529;-73
2023/07/18 10:42:03;;;;;;;;;5.00;5.00;;;;;24.52;37.33;101125.60;110109;1259;19975;-73
2023/07/18 10:44:29;;;;;;;;;9.50;6.00;;;;;24.48;37.42;101126.27;110093;1266;22722;-73
2023/07/18 10:46:55;;;;;;;;;8.00;5.50;;;;;24.47;37.59;101123.02;110243;1250;22665;-74
2023/07/18 10:49:21;;;;;;;;;4.00;4.00;;;;;24.42;37.48;101120.83;110232;1249;19946;-72
2023/07/18 10:51:47;;;;;;;;;4.00;4.00;;;;;24.41;37.76;101122.35;110264;1265;21177;-72
2023/07/18 10:54:13;;;;;;;;;4.00;4.00;;;;;24.44;37.77;101121.93;110234;1265;18742;-72
2023/07/18 10:56:39;;;;;;;;;4.50;4.50;;;;;24.48;38.12;101117.60;110200;1250;22405;-72
2023/07/18 10:59:05;;;;;;;;;5.00;5.00;;;;;24.51;38.07;101118.26;110265;1265;20701;-71
2023/07/18 11:01:31;;;;;;;;;4.00;4.00;;;;;24.60;38.08;101110.98;110204;1250;19602;-72
2023/07/18 11:03:58;;;;;;;;;4.00;4.00;;;;;24.74;37.96;101109.20;110245;1265;18659;-71
2023/07/18 11:06:24;;;;;;;;;4.00;4.00;;;;;24.74;38.16;101106.83;110248;1258;20916;-73